• Join FlightAware (Why Join?)
  • Login
  • US Flag 
08:28PM EDT


 

Airport Tracker/Info


-or-


 

Live Flight TrackerFlight Track Log ✈ ASQ5850 ✈ 02-May-2013 ✈ KBNA - KIAD

Flight Track Log - Related Links

Times and Time Zones

All times are in EDT time to prevent confusion due to time zone crossing. See the ASQ5850 flight status page for this flight to view local times or setup timezone preferences in your user account.

Time Position Orientation Groundspeed Altitude Reporting Facility
EDT Latitude Longitude Course Direction KTS MPH feet Rate Location/Type
09:56AM 36.1167 -86.6833 158° South 164 189 1,100  Level Nashville TRACON
09:57AM 36.0500 -86.6500 158° South 187 215 3,600 1,800 Climbing Nashville TRACON
09:58AM 36.0167 -86.6000 129° Southeast 245 282 5,300 1,680 Climbing Nashville TRACON
09:59AM 36.0000 -86.5333 107° East 266 306 6,700 1,860 Climbing Nashville TRACON
10:01AM 36.0544 -86.4211 59° Northeast 313 360 9,700 1,620 Climbing Memphis Center
10:02AM 36.0950 -86.3242 63° Northeast 296 341 10,800 960 Climbing Memphis Center
10:03AM 36.1394 -86.2192 62° Northeast 317 365 11,700 1,200 Climbing Memphis Center
10:04AM 36.1839 -86.1117 63° Northeast 331 381 13,200 1,440 Climbing Memphis Center
10:05AM 36.2303 -86.0036 62° Northeast 342 394 14,600 1,260 Climbing Memphis Center
10:06AM 36.2783 -85.8956 61° Northeast 351 404 15,800 1,200 Climbing Memphis Center
10:07AM 36.3264 -85.7847 62° Northeast 357 411 17,000 1,080 Climbing Memphis Center
10:08AM 36.3786 -85.6761 59° Northeast 362 417 18,000 900 Climbing Memphis Center
10:09AM 36.4328 -85.5647 59° Northeast 367 422 18,800 900 Climbing Memphis Center
10:10AM 36.4867 -85.4478 60° Northeast 372 428 19,900 1,080 Climbing Memphis Center
10:11AM 36.5428 -85.3333 59° Northeast 386 444 21,200 1,140 Climbing Indianapolis Center
10:12AM 36.5958 -85.2194 60° Northeast 381 438 22,400 1,080 Climbing Indianapolis Center
10:13AM 36.6478 -85.0697 67° East 390 449 23,500 960 Climbing Indianapolis Center
10:14AM 36.6886 -84.9400 69° East 398 458 24,400 960 Climbing Indianapolis Center
10:15AM 36.7275 -84.8108 69° East 398 458 25,500 1,020 Climbing Indianapolis Center
10:16AM 36.7661 -84.6817 70° East 397 457 26,600 960 Climbing Indianapolis Center
10:17AM 36.8050 -84.5528 69° East 396 456 27,600 840 Climbing Indianapolis Center
10:18AM 36.8456 -84.4172 69° East 392 451 28,400 720 Climbing Indianapolis Center
10:19AM 36.8864 -84.2864 69° East 401 461 29,200 960 Climbing Indianapolis Center
10:20AM 36.9242 -84.1558 70° East 400 460 30,400 1,200 Climbing Indianapolis Center
10:21AM 36.9633 -84.0269 69° East 396 456 31,700 1,200 Climbing Indianapolis Center
10:22AM 37.0058 -83.8817 70° East 382 440 33,000 600 Climbing Indianapolis Center
10:23AM 37.0464 -83.7506 69° East 411 473 33,000  Level Indianapolis Center
10:24AM 37.0867 -83.6100 70° East 430 495 33,000  Level Indianapolis Center
10:25AM 37.1289 -83.4644 70° East 443 510 33,000  Level Indianapolis Center
10:26AM 37.1717 -83.3167 70° East 446 513 33,000  Level Indianapolis Center
10:27AM 37.2164 -83.1669 69° East 453 521 33,000  Level Indianapolis Center
10:28AM 37.2669 -82.9911 70° East 454 522 33,000  Level Indianapolis Center
10:29AM 37.3086 -82.8406 71° East 452 520 33,000  Level Indianapolis Center
10:30AM 37.3519 -82.6911 70° East 451 519 33,000  Level Indianapolis Center
10:31AM 37.3931 -82.5439 71° East 446 513 33,000  Level Indianapolis Center
10:32AM 37.4344 -82.3961 71° East 447 514 33,000  Level Indianapolis Center
10:34AM 37.4764 -82.2472 70° East 449 517 33,000  Level Indianapolis Center
10:35AM 37.5189 -82.0975 70° East 453 521 33,000  Level Indianapolis Center
10:36AM 37.5675 -81.9219 71° East 454 522 33,000  Level Indianapolis Center
10:37AM 37.6072 -81.7692 72° East 456 525 33,000  Level Indianapolis Center
10:38AM 37.6489 -81.6206 70° East 451 519 33,000  Level Indianapolis Center
10:39AM 37.6894 -81.4658 72° East 440 506 33,000  Level Indianapolis Center
10:40AM 37.7267 -81.3286 71° East 428 493 33,000  Level Indianapolis Center
10:40AM 37.7383 -81.2722 75° East 430 495 33,000  Level Washington Center
10:41AM 37.7756 -81.1436 70° East 430 495 33,000  Level Washington Center
10:42AM 37.8261 -80.9975 66° East 430 495 33,000  Level Washington Center
10:43AM 37.8761 -80.8564 66° East 440 506 33,000  Level Washington Center
10:44AM 37.9342 -80.7233 61° Northeast 440 506 33,000  Level Washington Center
10:45AM 38.0031 -80.5753 59° Northeast 434 499 33,000  Level Washington Center
10:46AM 38.0625 -80.4472 59° Northeast 424 488 33,000  Level Washington Center
10:47AM 38.1239 -80.3194 59° Northeast 424 488 33,000  Level Washington Center
10:48AM 38.1833 -80.1856 61° Northeast 424 488 33,000 -360 Level Washington Center
10:49AM 38.2447 -80.0519 60° Northeast 429 494 32,400 -660 Descending Washington Center
10:50AM 38.2992 -79.9308 60° Northeast 429 494 31,700 -1,140 Descending Washington Center
10:51AM 38.3581 -79.7967 61° Northeast 429 494 30,200 -1,620 Descending Washington Center
10:52AM 38.4214 -79.6597 59° Northeast 429 494 28,500 -2,220 Descending Washington Center
10:53AM 38.4822 -79.5197 61° Northeast 434 499 25,800 -2,220 Descending Washington Center
10:54AM 38.5367 -79.3847 63° Northeast 434 499 24,000 -1,740 Descending Washington Center
10:55AM 38.5708 -79.2269 74° East 424 488 22,400 -1,920 Descending Washington Center
10:56AM 38.5961 -79.0769 78° East 419 482 20,300 -2,160 Descending Washington Center
10:57AM 38.6231 -78.9372 76° East 414 476 18,100 -1,920 Descending Washington Center
10:58AM 38.6517 -78.7978 75° East 409 471 16,500 -2,040 Descending Washington Center
10:59AM 38.6761 -78.6658 77° East 404 465 14,200 -2,400 Descending Washington Center
11:00AM 38.7000 -78.5392 76° East 385 443 11,900 -1,620 Descending Washington Center
11:01AM 38.7236 -78.4231 75° East 357 411 11,000 -840 Descending Washington Center
11:02AM 38.7483 -78.3519 66° East 317 365 10,300 -1,020 Descending Washington Center
11:03AM 38.8106 -78.2692 46° Northeast 280 322 9,000 -720 Descending Washington Center
11:04AM 38.8581 -78.1936 51° Northeast 275 316 8,900 -960 Descending Washington Center
11:05AM 38.8808 -78.1036 72° East 263 303 7,100 -1,260 Descending Washington Center
11:06AM 38.9014 -78.0164 73° East 256 295 6,400 -600 Descending Washington Center
11:07AM 38.9219 -77.9317 73° East 251 289 6,000 -240 Descending Washington Center
11:08AM 38.9442 -77.8522 70° East 246 283 6,000  Level Washington Center
11:09AM 38.9647 -77.7542 75° East 246 283 6,000  Level Washington Center
11:11AM 38.9000 -77.6000 118° Southeast 258 297 6,000 -420 Level Potomac TRACON
11:12AM 38.8500 -77.5667 153° Southeast 236 272 4,900 -1,140 Descending Potomac TRACON
11:13AM 38.7833 -77.5667 180° South 217 250 3,800 -960 Descending Potomac TRACON
11:14AM 38.8000 -77.5000 72° East 184 212 3,000 -720 Descending Potomac TRACON
11:15AM 38.8333 -77.4667 38° Northeast 201 231 2,400 -780 Descending Potomac TRACON
11:16AM 38.8833 -77.4667 360° North 151 174 1,500 -840 Descending Potomac TRACON
11:17AM 38.9167 -77.4667 360° North 140 161 900 -720 Descending Potomac TRACON
11:19AM 38.9474 -77.4599 North  Level Estimated
11:26AM 38.9474 -77.4599 159° South  Level Estimated